sensor_id;sensor_type;location;lat;lon;timestamp;temperature;humidity
23827;DHT22;12094;50.822;4.376;2023-04-03T00:00:03;6.00;99.90
23827;DHT22;12094;50.822;4.376;2023-04-03T00:02:35;6.00;99.90
23827;DHT22;12094;50.822;4.376;2023-04-03T00:05:02;6.00;99.90
23827;DHT22;12094;50.822;4.376;2023-04-03T00:07:30;6.00;99.90
23827;DHT22;12094;50.822;4.376;2023-04-03T00:09:58;5.90;99.90
23827;DHT22;12094;50.822;4.376;2023-04-03T00:12:25;5.90;99.90
23827;DHT22;12094;50.822;4.376;2023-04-03T00:14:55;5.80;99.90
23827;DHT22;12094;50.822;4.376;2023-04-03T00:17:22;5.80;99.90
23827;DHT22;12094;50.822;4.376;2023-04-03T00:19:50;5.80;99.90
23827;DHT22;12094;50.822;4.376;2023-04-03T00:22:18;5.90;99.90
23827;DHT22;12094;50.822;4.376;2023-04-03T00:24:46;5.90;99.90
23827;DHT22;12094;50.822;4.376;2023-04-03T00:27:14;6.00;99.90
23827;DHT22;12094;50.822;4.376;2023-04-03T00:29:44;5.90;99.90
23827;DHT22;12094;50.822;4.376;2023-04-03T00:32:12;5.80;99.90
23827;DHT22;12094;50.822;4.376;2023-04-03T00:34:40;5.80;99.90
23827;DHT22;12094;50.822;4.376;2023-04-03T00:37:09;5.80;99.90
23827;DHT22;12094;50.822;4.376;2023-04-03T00:39:36;5.80;99.90
23827;DHT22;12094;50.822;4.376;2023-04-03T00:42:04;5.80;99.90
23827;DHT22;12094;50.822;4.376;2023-04-03T00:47:05;5.80;99.90
23827;DHT22;12094;50.822;4.376;2023-04-03T00:49:34;5.80;99.90
23827;DHT22;12094;50.822;4.376;2023-04-03T00:52:03;5.70;99.90
23827;DHT22;12094;50.822;4.376;2023-04-03T00:54:30;5.70;99.90
23827;DHT22;12094;50.822;4.376;2023-04-03T00:56:57;5.70;99.90
23827;DHT22;12094;50.822;4.376;2023-04-03T00:59:29;5.70;99.90
23827;DHT22;12094;50.822;4.376;2023-04-03T01:01:57;5.80;99.90
23827;DHT22;12094;50.822;4.376;2023-04-03T01:07:12;5.60;99.90
23827;DHT22;12094;50.822;4.376;2023-04-03T01:09:45;5.50;99.90
23827;DHT22;12094;50.822;4.376;2023-04-03T01:12:22;5.50;99.90
23827;DHT22;12094;50.822;4.376;2023-04-03T01:14:51;5.60;99.90
23827;DHT22;12094;50.822;4.376;2023-04-03T01:17:35;5.50;99.90
23827;DHT22;12094;50.822;4.376;2023-04-03T01:25:16;5.30;99.90
23827;DHT22;12094;50.822;4.376;2023-04-03T01:27:44;5.20;99.90
23827;DHT22;12094;50.822;4.376;2023-04-03T01:30:14;5.30;99.90
23827;DHT22;12094;50.822;4.376;2023-04-03T01:32:43;5.20;99.90
23827;DHT22;12094;50.822;4.376;2023-04-03T01:35:12;5.20;99.90
23827;DHT22;12094;50.822;4.376;2023-04-03T01:37:41;5.10;99.90
23827;DHT22;12094;50.822;4.376;2023-04-03T01:40:09;5.20;99.90
23827;DHT22;12094;50.822;4.376;2023-04-03T01:42:37;5.20;99.90
23827;DHT22;12094;50.822;4.376;2023-04-03T01:45:05;5.20;99.90
23827;DHT22;12094;50.822;4.376;2023-04-03T01:47:33;5.20;99.90
23827;DHT22;12094;50.822;4.376;2023-04-03T01:50:00;5.10;99.90
23827;DHT22;12094;50.822;4.376;2023-04-03T01:52:31;5.20;99.90
23827;DHT22;12094;50.822;4.376;2023-04-03T01:55:01;5.10;99.90
23827;DHT22;12094;50.822;4.376;2023-04-03T01:57:29;5.10;99.90
23827;DHT22;12094;50.822;4.376;2023-04-03T01:59:56;5.10;99.90
23827;DHT22;12094;50.822;4.376;2023-04-03T02:02:24;5.10;99.90
23827;DHT22;12094;50.822;4.376;2023-04-03T02:04:53;5.10;99.90
23827;DHT22;12094;50.822;4.376;2023-04-03T02:07:21;5.00;99.90
23827;DHT22;12094;50.822;4.376;2023-04-03T02:09:52;5.00;99.90
23827;DHT22;12094;50.822;4.376;2023-04-03T02:12:22;4.90;99.90
23827;DHT22;12094;50.822;4.376;2023-04-03T02:14:50;4.90;99.90
23827;DHT22;12094;50.822;4.376;2023-04-03T02:17:17;4.90;99.90
23827;DHT22;12094;50.822;4.376;2023-04-03T02:19:46;5.00;99.90
23827;DHT22;12094;50.822;4.376;2023-04-03T02:22:13;4.90;99.90
23827;DHT22;12094;50.822;4.376;2023-04-03T02:24:40;4.90;99.90
23827;DHT22;12094;50.822;4.376;2023-04-03T02:27:08;4.90;99.90
23827;DHT22;12094;50.822;4.376;2023-04-03T02:29:35;4.70;99.90
23827;DHT22;12094;50.822;4.376;2023-04-03T02:32:02;4.80;99.90
23827;DHT22;12094;50.822;4.376;2023-04-03T02:34:30;4.70;99.90
23827;DHT22;12094;50.822;4.376;2023-04-03T02:37:00;4.70;99.90
23827;DHT22;12094;50.822;4.376;2023-04-03T02:39:30;4.70;99.90
23827;DHT22;12094;50.822;4.376;2023-04-03T02:42:00;4.70;99.90
23827;DHT22;12094;50.822;4.376;2023-04-03T02:44:28;4.60;99.90
23827;DHT22;12094;50.822;4.376;2023-04-03T02:46:55;4.60;99.90
23827;DHT22;12094;50.822;4.376;2023-04-03T02:49:23;4.70;99.90
23827;DHT22;12094;50.822;4.376;2023-04-03T02:51:50;4.50;99.90
23827;DHT22;12094;50.822;4.376;2023-04-03T02:54:17;4.50;99.90
23827;DHT22;12094;50.822;4.376;2023-04-03T02:56:50;4.60;99.90
23827;DHT22;12094;50.822;4.376;2023-04-03T02:59:17;4.60;99.90
23827;DHT22;12094;50.822;4.376;2023-04-03T03:01:44;4.60;99.90
23827;DHT22;12094;50.822;4.376;2023-04-03T03:04:12;4.50;99.90
23827;DHT22;12094;50.822;4.376;2023-04-03T03:06:39;4.40;99.90
23827;DHT22;12094;50.822;4.376;2023-04-03T03:09:09;4.50;99.90
23827;DHT22;12094;50.822;4.376;2023-04-03T03:11:37;4.50;99.90
23827;DHT22;12094;50.822;4.376;2023-04-03T03:14:05;4.40;99.90
23827;DHT22;12094;50.822;4.376;2023-04-03T03:16:33;4.40;99.90
23827;DHT22;12094;50.822;4.376;2023-04-03T03:19:05;4.40;99.90
23827;DHT22;12094;50.822;4.376;2023-04-03T03:21:33;4.40;99.90
23827;DHT22;12094;50.822;4.376;2023-04-03T03:24:01;4.40;99.90
23827;DHT22;12094;50.822;4.376;2023-04-03T03:26:28;4.40;99.90
23827;DHT22;12094;50.822;4.376;2023-04-03T03:28:56;4.30;99.90
23827;DHT22;12094;50.822;4.376;2023-04-03T03:31:23;4.30;99.90
23827;DHT22;12094;50.822;4.376;2023-04-03T03:33:51;4.40;99.90
23827;DHT22;12094;50.822;4.376;2023-04-03T03:36:18;4.50;99.90
23827;DHT22;12094;50.822;4.376;2023-04-03T03:38:45;4.30;99.90
23827;DHT22;12094;50.822;4.376;2023-04-03T03:41:13;4.40;99.90
23827;DHT22;12094;50.822;4.376;2023-04-03T03:43:43;4.30;99.90
23827;DHT22;12094;50.822;4.376;2023-04-03T03:46:12;4.40;99.90
23827;DHT22;12094;50.822;4.376;2023-04-03T03:48:43;4.40;99.90
23827;DHT22;12094;50.822;4.376;2023-04-03T03:51:11;4.30;99.90
23827;DHT22;12094;50.822;4.376;2023-04-03T03:53:38;4.30;99.90
23827;DHT22;12094;50.822;4.376;2023-04-03T03:56:09;4.30;99.90
23827;DHT22;12094;50.822;4.376;2023-04-03T03:58:38;4.30;99.90
23827;DHT22;12094;50.822;4.376;2023-04-03T04:01:06;4.30;99.90
23827;DHT22;12094;50.822;4.376;2023-04-03T04:03:39;4.20;99.90
23827;DHT22;12094;50.822;4.376;2023-04-03T04:06:08;4.20;99.90
23827;DHT22;12094;50.822;4.376;2023-04-03T04:08:35;4.10;99.90
23827;DHT22;12094;50.822;4.376;2023-04-03T04:11:04;4.10;99.90
23827;DHT22;12094;50.822;4.376;2023-04-03T04:13:32;4.20;99.90
23827;DHT22;12094;50.822;4.376;2023-04-03T04:16:02;4.20;99.90
23827;DHT22;12094;50.822;4.376;2023-04-03T04:18:30;4.20;99.90
23827;DHT22;12094;50.822;4.376;2023-04-03T04:20:57;4.20;99.90
23827;DHT22;12094;50.822;4.376;2023-04-03T04:23:24;4.20;99.90
23827;DHT22;12094;50.822;4.376;2023-04-03T04:25:54;4.10;99.90
23827;DHT22;12094;50.822;4.376;2023-04-03T04:28:23;4.00;99.90
23827;DHT22;12094;50.822;4.376;2023-04-03T04:30:53;4.00;99.90
23827;DHT22;12094;50.822;4.376;2023-04-03T04:33:23;4.00;99.90
23827;DHT22;12094;50.822;4.376;2023-04-03T04:36:11;4.10;99.90
23827;DHT22;12094;50.822;4.376;2023-04-03T04:38:53;4.10;99.90
23827;DHT22;12094;50.822;4.376;2023-04-03T04:41:40;4.20;99.90
23827;DHT22;12094;50.822;4.376;2023-04-03T04:44:44;4.20;99.90
23827;DHT22;12094;50.822;4.376;2023-04-03T04:47:55;4.20;99.90
23827;DHT22;12094;50.822;4.376;2023-04-03T04:50:47;4.10;99.90
23827;DHT22;12094;50.822;4.376;2023-04-03T04:54:15;4.10;99.90
23827;DHT22;12094;50.822;4.376;2023-04-03T04:57:26;4.00;99.90
23827;DHT22;12094;50.822;4.376;2023-04-03T05:03:49;4.00;99.90
23827;DHT22;12094;50.822;4.376;2023-04-03T05:06:26;4.10;99.90
23827;DHT22;12094;50.822;4.376;2023-04-03T05:09:02;4.00;99.90
23827;DHT22;12094;50.822;4.376;2023-04-03T05:12:37;4.00;99.90
23827;DHT22;12094;50.822;4.376;2023-04-03T05:15:10;4.00;99.90
23827;DHT22;12094;50.822;4.376;2023-04-03T05:17:57;4.00;99.90
23827;DHT22;12094;50.822;4.376;2023-04-03T05:20:35;4.00;99.90
23827;DHT22;12094;50.822;4.376;2023-04-03T05:23:33;4.00;99.90
23827;DHT22;12094;50.822;4.376;2023-04-03T05:26:20;4.10;99.90
23827;DHT22;12094;50.822;4.376;2023-04-03T05:30:00;4.00;99.90
23827;DHT22;12094;50.822;4.376;2023-04-03T05:32:36;3.90;99.90
23827;DHT22;12094;50.822;4.376;2023-04-03T05:35:18;3.90;99.90
23827;DHT22;12094;50.822;4.376;2023-04-03T05:37:50;4.00;99.90
23827;DHT22;12094;50.822;4.376;2023-04-03T05:40:18;3.90;99.90
23827;DHT22;12094;50.822;4.376;2023-04-03T05:42:56;3.90;99.90
23827;DHT22;12094;50.822;4.376;2023-04-03T05:45:35;3.90;99.90
23827;DHT22;12094;50.822;4.376;2023-04-03T05:48:03;4.00;99.90
23827;DHT22;12094;50.822;4.376;2023-04-03T05:51:16;4.00;99.90
23827;DHT22;12094;50.822;4.376;2023-04-03T05:53:56;4.00;99.90
23827;DHT22;12094;50.822;4.376;2023-04-03T05:56:42;4.00;99.90
23827;DHT22;12094;50.822;4.376;2023-04-03T05:59:10;4.10;99.90
23827;DHT22;12094;50.822;4.376;2023-04-03T06:01:38;4.10;99.90
23827;DHT22;12094;50.822;4.376;2023-04-03T06:04:06;4.20;99.90
23827;DHT22;12094;50.822;4.376;2023-04-03T06:06:57;4.30;99.90
23827;DHT22;12094;50.822;4.376;2023-04-03T06:09:27;4.40;99.90
23827;DHT22;12094;50.822;4.376;2023-04-03T06:11:56;4.40;99.90
23827;DHT22;12094;50.822;4.376;2023-04-03T06:14:26;4.50;99.90
23827;DHT22;12094;50.822;4.376;2023-04-03T06:16:54;4.40;99.90
23827;DHT22;12094;50.822;4.376;2023-04-03T06:19:21;4.30;99.90
23827;DHT22;12094;50.822;4.376;2023-04-03T06:21:52;4.30;99.90
23827;DHT22;12094;50.822;4.376;2023-04-03T06:24:19;4.30;99.90
23827;DHT22;12094;50.822;4.376;2023-04-03T06:26:49;4.50;99.90
23827;DHT22;12094;50.822;4.376;2023-04-03T06:29:20;4.50;99.90
23827;DHT22;12094;50.822;4.376;2023-04-03T06:31:47;4.50;99.90
23827;DHT22;12094;50.822;4.376;2023-04-03T06:34:14;4.60;99.90
23827;DHT22;12094;50.822;4.376;2023-04-03T06:36:42;4.60;99.90
23827;DHT22;12094;50.822;4.376;2023-04-03T06:39:20;4.70;99.90
23827;DHT22;12094;50.822;4.376;2023-04-03T06:41:50;4.80;99.90
23827;DHT22;12094;50.822;4.376;2023-04-03T06:44:27;4.80;99.90
23827;DHT22;12094;50.822;4.376;2023-04-03T06:46:54;4.90;99.90
23827;DHT22;12094;50.822;4.376;2023-04-03T06:49:21;5.00;99.90
23827;DHT22;12094;50.822;4.376;2023-04-03T06:51:48;5.00;99.90
23827;DHT22;12094;50.822;4.376;2023-04-03T06:54:15;5.10;99.90
23827;DHT22;12094;50.822;4.376;2023-04-03T06:56:42;5.20;99.90
23827;DHT22;12094;50.822;4.376;2023-04-03T06:59:11;5.20;99.90
23827;DHT22;12094;50.822;4.376;2023-04-03T07:01:39;5.10;99.90
23827;DHT22;12094;50.822;4.376;2023-04-03T07:04:08;5.10;99.90
23827;DHT22;12094;50.822;4.376;2023-04-03T07:06:34;5.20;99.90
23827;DHT22;12094;50.822;4.376;2023-04-03T07:09:02;5.30;99.90
23827;DHT22;12094;50.822;4.376;2023-04-03T07:11:30;5.40;99.90
23827;DHT22;12094;50.822;4.376;2023-04-03T07:13:58;5.40;99.90
23827;DHT22;12094;50.822;4.376;2023-04-03T07:16:26;5.40;99.90
23827;DHT22;12094;50.822;4.376;2023-04-03T07:18:56;5.50;99.90
23827;DHT22;12094;50.822;4.376;2023-04-03T07:21:24;5.60;99.90
23827;DHT22;12094;50.822;4.376;2023-04-03T07:23:51;5.50;99.90
23827;DHT22;12094;50.822;4.376;2023-04-03T07:26:18;5.40;99.90
23827;DHT22;12094;50.822;4.376;2023-04-03T07:28:45;5.50;99.90
23827;DHT22;12094;50.822;4.376;2023-04-03T07:31:14;5.70;99.90
23827;DHT22;12094;50.822;4.376;2023-04-03T07:33:43;5.90;99.90
23827;DHT22;12094;50.822;4.376;2023-04-03T07:36:10;6.10;99.90
23827;DHT22;12094;50.822;4.376;2023-04-03T07:38:41;6.20;99.90
23827;DHT22;12094;50.822;4.376;2023-04-03T07:41:14;6.30;99.90
23827;DHT22;12094;50.822;4.376;2023-04-03T07:43:42;6.30;99.90
23827;DHT22;12094;50.822;4.376;2023-04-03T07:46:09;6.40;99.90
23827;DHT22;12094;50.822;4.376;2023-04-03T07:48:37;6.40;99.90
23827;DHT22;12094;50.822;4.376;2023-04-03T07:51:10;6.40;99.90
23827;DHT22;12094;50.822;4.376;2023-04-03T07:53:37;6.40;99.90
23827;DHT22;12094;50.822;4.376;2023-04-03T07:56:10;6.20;99.90
23827;DHT22;12094;50.822;4.376;2023-04-03T08:02:18;6.40;99.90
23827;DHT22;12094;50.822;4.376;2023-04-03T08:04:45;6.40;99.90
23827;DHT22;12094;50.822;4.376;2023-04-03T08:07:12;6.30;99.90
23827;DHT22;12094;50.822;4.376;2023-04-03T08:09:40;6.30;99.90
23827;DHT22;12094;50.822;4.376;2023-04-03T08:12:26;6.40;99.90
23827;DHT22;12094;50.822;4.376;2023-04-03T08:15:19;6.60;99.90
23827;DHT22;12094;50.822;4.376;2023-04-03T08:18:01;6.50;99.90
23827;DHT22;12094;50.822;4.376;2023-04-03T08:20:39;6.60;99.90
23827;DHT22;12094;50.822;4.376;2023-04-03T08:23:17;6.70;99.90
23827;DHT22;12094;50.822;4.376;2023-04-03T08:25:53;6.80;99.90
23827;DHT22;12094;50.822;4.376;2023-04-03T08:28:41;6.90;99.90
23827;DHT22;12094;50.822;4.376;2023-04-03T08:31:19;6.90;99.90
23827;DHT22;12094;50.822;4.376;2023-04-03T08:33:47;7.00;99.90
23827;DHT22;12094;50.822;4.376;2023-04-03T08:36:24;7.10;99.90
23827;DHT22;12094;50.822;4.376;2023-04-03T08:38:53;7.10;99.90
23827;DHT22;12094;50.822;4.376;2023-04-03T08:46:42;7.20;99.90
23827;DHT22;12094;50.822;4.376;2023-04-03T08:49:43;7.20;99.90
23827;DHT22;12094;50.822;4.376;2023-04-03T08:52:33;7.30;99.90
23827;DHT22;12094;50.822;4.376;2023-04-03T08:56:04;7.30;99.90
23827;DHT22;12094;50.822;4.376;2023-04-03T08:58:21;7.60;99.90
23827;DHT22;12094;50.822;4.376;2023-04-03T09:01:02;7.80;99.90
23827;DHT22;12094;50.822;4.376;2023-04-03T09:03:32;7.80;99.90
23827;DHT22;12094;50.822;4.376;2023-04-03T09:06:16;7.90;99.90
23827;DHT22;12094;50.822;4.376;2023-04-03T09:12:00;7.90;99.90
23827;DHT22;12094;50.822;4.376;2023-04-03T09:15:09;7.90;99.90
23827;DHT22;12094;50.822;4.376;2023-04-03T09:18:23;7.90;99.90
23827;DHT22;12094;50.822;4.376;2023-04-03T09:21:19;8.00;99.90
23827;DHT22;12094;50.822;4.376;2023-04-03T09:23:52;8.00;99.90
23827;DHT22;12094;50.822;4.376;2023-04-03T09:26:48;8.00;99.90
23827;DHT22;12094;50.822;4.376;2023-04-03T09:29:22;8.00;99.90
23827;DHT22;12094;50.822;4.376;2023-04-03T09:32:00;8.00;99.90
23827;DHT22;12094;50.822;4.376;2023-04-03T09:34:31;8.20;99.90
23827;DHT22;12094;50.822;4.376;2023-04-03T09:37:05;8.20;99.90
23827;DHT22;12094;50.822;4.376;2023-04-03T09:39:53;8.20;99.90
23827;DHT22;12094;50.822;4.376;2023-04-03T09:43:01;8.40;99.90
23827;DHT22;12094;50.822;4.376;2023-04-03T09:45:37;8.30;99.90
23827;DHT22;12094;50.822;4.376;2023-04-03T09:50:53;8.50;99.90
23827;DHT22;12094;50.822;4.376;2023-04-03T09:53:42;8.50;99.90
23827;DHT22;12094;50.822;4.376;2023-04-03T09:56:19;8.50;99.90
23827;DHT22;12094;50.822;4.376;2023-04-03T10:01:57;8.80;99.90
23827;DHT22;12094;50.822;4.376;2023-04-03T10:04:38;8.80;99.90
23827;DHT22;12094;50.822;4.376;2023-04-03T10:07:35;8.80;99.90
23827;DHT22;12094;50.822;4.376;2023-04-03T10:10:18;8.80;99.90
23827;DHT22;12094;50.822;4.376;2023-04-03T10:12:47;8.80;99.90
23827;DHT22;12094;50.822;4.376;2023-04-03T10:15:16;8.80;99.90
23827;DHT22;12094;50.822;4.376;2023-04-03T10:18:04;8.80;99.90
23827;DHT22;12094;50.822;4.376;2023-04-03T10:20:52;8.90;99.90
23827;DHT22;12094;50.822;4.376;2023-04-03T10:23:32;9.00;99.90
23827;DHT22;12094;50.822;4.376;2023-04-03T10:26:53;9.10;99.90
23827;DHT22;12094;50.822;4.376;2023-04-03T10:29:51;9.10;99.90
23827;DHT22;12094;50.822;4.376;2023-04-03T10:45:08;9.40;99.90
23827;DHT22;12094;50.822;4.376;2023-04-03T10:48:07;9.40;99.90
23827;DHT22;12094;50.822;4.376;2023-04-03T10:54:00;9.40;99.90
23827;DHT22;12094;50.822;4.376;2023-04-03T10:56:54;9.50;99.90
23827;DHT22;12094;50.822;4.376;2023-04-03T10:59:44;9.70;99.90
23827;DHT22;12094;50.822;4.376;2023-04-03T11:02:32;10.00;99.90
23827;DHT22;12094;50.822;4.376;2023-04-03T11:05:16;10.10;99.90
23827;DHT22;12094;50.822;4.376;2023-04-03T11:07:51;10.00;99.90
23827;DHT22;12094;50.822;4.376;2023-04-03T11:10:45;10.20;99.90
23827;DHT22;12094;50.822;4.376;2023-04-03T11:13:40;10.60;99.90
23827;DHT22;12094;50.822;4.376;2023-04-03T11:16:14;11.40;99.90
23827;DHT22;12094;50.822;4.376;2023-04-03T11:19:00;11.90;99.90
23827;DHT22;12094;50.822;4.376;2023-04-03T11:21:33;12.30;99.90
23827;DHT22;12094;50.822;4.376;2023-04-03T11:24:05;12.40;99.90
23827;DHT22;12094;50.822;4.376;2023-04-03T11:26:39;12.90;99.60
23827;DHT22;12094;50.822;4.376;2023-04-03T11:29:19;13.20;96.70
23827;DHT22;12094;50.822;4.376;2023-04-03T11:34:56;14.10;92.30
23827;DHT22;12094;50.822;4.376;2023-04-03T11:37:38;13.90;90.90
23827;DHT22;12094;50.822;4.376;2023-04-03T11:42:41;13.90;91.80
23827;DHT22;12094;50.822;4.376;2023-04-03T11:47:51;15.10;88.80
23827;DHT22;12094;50.822;4.376;2023-04-03T12:00:52;15.40;81.80
23827;DHT22;12094;50.822;4.376;2023-04-03T12:19:34;16.10;71.20
23827;DHT22;12094;50.822;4.376;2023-04-03T12:22:09;15.70;72.10
23827;DHT22;12094;50.822;4.376;2023-04-03T12:24:40;15.60;73.00
23827;DHT22;12094;50.822;4.376;2023-04-03T12:27:33;15.60;72.30
23827;DHT22;12094;50.822;4.376;2023-04-03T12:30:12;15.60;72.30
23827;DHT22;12094;50.822;4.376;2023-04-03T12:36:02;16.50;66.30
23827;DHT22;12094;50.822;4.376;2023-04-03T12:44:09;16.00;61.90
23827;DHT22;12094;50.822;4.376;2023-04-03T12:46:48;16.40;61.00
23827;DHT22;12094;50.822;4.376;2023-04-03T12:49:35;15.70;62.60
23827;DHT22;12094;50.822;4.376;2023-04-03T12:55:00;15.80;61.60
23827;DHT22;12094;50.822;4.376;2023-04-03T12:57:31;16.30;60.40
23827;DHT22;12094;50.822;4.376;2023-04-03T13:00:31;16.70;58.50
23827;DHT22;12094;50.822;4.376;2023-04-03T13:03:04;17.20;58.70
23827;DHT22;12094;50.822;4.376;2023-04-03T13:05:33;17.20;56.70
23827;DHT22;12094;50.822;4.376;2023-04-03T13:08:05;17.00;56.50
23827;DHT22;12094;50.822;4.376;2023-04-03T13:10:51;16.30;57.50
23827;DHT22;12094;50.822;4.376;2023-04-03T13:13:23;15.20;58.80
23827;DHT22;12094;50.822;4.376;2023-04-03T13:15:53;14.30;60.30
23827;DHT22;12094;50.822;4.376;2023-04-03T13:21:03;15.80;58.60
23827;DHT22;12094;50.822;4.376;2023-04-03T13:23:32;16.30;56.80
23827;DHT22;12094;50.822;4.376;2023-04-03T13:26:03;16.50;56.90
23827;DHT22;12094;50.822;4.376;2023-04-03T13:28:32;16.40;56.40
23827;DHT22;12094;50.822;4.376;2023-04-03T13:33:57;16.30;55.20
23827;DHT22;12094;50.822;4.376;2023-04-03T13:36:38;16.10;54.40
23827;DHT22;12094;50.822;4.376;2023-04-03T13:39:25;16.30;54.10
23827;DHT22;12094;50.822;4.376;2023-04-03T13:42:01;15.90;53.60
23827;DHT22;12094;50.822;4.376;2023-04-03T13:44:34;16.10;54.10
23827;DHT22;12094;50.822;4.376;2023-04-03T13:49:45;16.20;53.60
23827;DHT22;12094;50.822;4.376;2023-04-03T13:54:54;16.40;53.80
23827;DHT22;12094;50.822;4.376;2023-04-03T13:57:23;16.30;53.40
23827;DHT22;12094;50.822;4.376;2023-04-03T13:59:52;15.80;54.80
23827;DHT22;12094;50.822;4.376;2023-04-03T14:02:30;15.60;55.20
23827;DHT22;12094;50.822;4.376;2023-04-03T14:05:00;14.80;57.20
23827;DHT22;12094;50.822;4.376;2023-04-03T14:07:29;14.30;60.20
23827;DHT22;12094;50.822;4.376;2023-04-03T14:09:58;13.30;60.50
23827;DHT22;12094;50.822;4.376;2023-04-03T14:12:35;12.90;62.30
23827;DHT22;12094;50.822;4.376;2023-04-03T14:18:05;12.90;61.90
23827;DHT22;12094;50.822;4.376;2023-04-03T14:20:34;12.70;63.50
23827;DHT22;12094;50.822;4.376;2023-04-03T14:23:01;12.50;64.30
23827;DHT22;12094;50.822;4.376;2023-04-03T14:25:28;12.20;65.60
23827;DHT22;12094;50.822;4.376;2023-04-03T14:27:55;12.20;65.40
23827;DHT22;12094;50.822;4.376;2023-04-03T14:30:24;12.20;66.50
23827;DHT22;12094;50.822;4.376;2023-04-03T14:32:51;12.10;63.60
23827;DHT22;12094;50.822;4.376;2023-04-03T14:35:19;12.00;63.90
23827;DHT22;12094;50.822;4.376;2023-04-03T14:37:48;11.90;64.30
23827;DHT22;12094;50.822;4.376;2023-04-03T14:40:20;11.90;64.70
23827;DHT22;12094;50.822;4.376;2023-04-03T14:42:47;11.90;64.80
23827;DHT22;12094;50.822;4.376;2023-04-03T14:45:16;11.80;64.90
23827;DHT22;12094;50.822;4.376;2023-04-03T14:47:48;11.90;65.80
23827;DHT22;12094;50.822;4.376;2023-04-03T14:50:22;11.90;64.40
23827;DHT22;12094;50.822;4.376;2023-04-03T14:52:54;12.00;65.10
23827;DHT22;12094;50.822;4.376;2023-04-03T14:55:24;11.90;65.20
23827;DHT22;12094;50.822;4.376;2023-04-03T14:57:52;11.90;65.90
23827;DHT22;12094;50.822;4.376;2023-04-03T15:00:21;11.80;66.20
23827;DHT22;12094;50.822;4.376;2023-04-03T15:02:49;11.80;66.30
23827;DHT22;12094;50.822;4.376;2023-04-03T15:05:16;11.70;66.10
23827;DHT22;12094;50.822;4.376;2023-04-03T15:07:50;11.80;65.60
23827;DHT22;12094;50.822;4.376;2023-04-03T15:10:25;11.70;65.10
23827;DHT22;12094;50.822;4.376;2023-04-03T15:12:52;11.80;65.50
23827;DHT22;12094;50.822;4.376;2023-04-03T15:15:21;11.80;64.70
23827;DHT22;12094;50.822;4.376;2023-04-03T15:17:56;11.80;63.90
23827;DHT22;12094;50.822;4.376;2023-04-03T15:20:28;11.80;64.10
23827;DHT22;12094;50.822;4.376;2023-04-03T15:22:58;11.70;64.00
23827;DHT22;12094;50.822;4.376;2023-04-03T15:25:28;11.70;63.30
23827;DHT22;12094;50.822;4.376;2023-04-03T15:27:56;11.60;62.40
23827;DHT22;12094;50.822;4.376;2023-04-03T15:30:26;11.40;62.50
23827;DHT22;12094;50.822;4.376;2023-04-03T15:32:54;11.40;62.50
23827;DHT22;12094;50.822;4.376;2023-04-03T15:35:22;11.40;63.90
23827;DHT22;12094;50.822;4.376;2023-04-03T15:38:21;11.50;64.80
23827;DHT22;12094;50.822;4.376;2023-04-03T15:40:51;11.40;63.90
23827;DHT22;12094;50.822;4.376;2023-04-03T15:43:19;11.40;63.10
23827;DHT22;12094;50.822;4.376;2023-04-03T15:45:46;11.40;62.70
23827;DHT22;12094;50.822;4.376;2023-04-03T15:48:17;11.40;62.80
23827;DHT22;12094;50.822;4.376;2023-04-03T15:50:46;11.40;64.70
23827;DHT22;12094;50.822;4.376;2023-04-03T15:53:13;11.40;64.90
23827;DHT22;12094;50.822;4.376;2023-04-03T15:55:42;11.40;64.90
23827;DHT22;12094;50.822;4.376;2023-04-03T15:58:09;11.40;65.30
23827;DHT22;12094;50.822;4.376;2023-04-03T16:00:38;11.40;65.20
23827;DHT22;12094;50.822;4.376;2023-04-03T16:03:11;11.30;66.20
23827;DHT22;12094;50.822;4.376;2023-04-03T16:05:39;11.30;67.60
23827;DHT22;12094;50.822;4.376;2023-04-03T16:08:08;11.40;68.60
23827;DHT22;12094;50.822;4.376;2023-04-03T16:10:36;11.30;68.90
23827;DHT22;12094;50.822;4.376;2023-04-03T16:13:04;11.40;69.50
23827;DHT22;12094;50.822;4.376;2023-04-03T16:15:31;11.40;69.90
23827;DHT22;12094;50.822;4.376;2023-04-03T16:18:01;11.50;70.50
23827;DHT22;12094;50.822;4.376;2023-04-03T16:20:29;11.20;70.90
23827;DHT22;12094;50.822;4.376;2023-04-03T16:22:58;11.20;71.30
23827;DHT22;12094;50.822;4.376;2023-04-03T16:25:26;11.30;70.10
23827;DHT22;12094;50.822;4.376;2023-04-03T16:27:53;11.40;70.40
23827;DHT22;12094;50.822;4.376;2023-04-03T16:30:21;11.30;70.80
23827;DHT22;12094;50.822;4.376;2023-04-03T16:32:48;11.40;71.50
23827;DHT22;12094;50.822;4.376;2023-04-03T16:35:15;11.20;72.60
23827;DHT22;12094;50.822;4.376;2023-04-03T16:37:42;11.20;73.30
23827;DHT22;12094;50.822;4.376;2023-04-03T16:40:10;11.20;73.30
23827;DHT22;12094;50.822;4.376;2023-04-03T16:42:40;11.10;72.80
23827;DHT22;12094;50.822;4.376;2023-04-03T16:45:07;11.10;73.20
23827;DHT22;12094;50.822;4.376;2023-04-03T16:47:34;11.10;73.60
23827;DHT22;12094;50.822;4.376;2023-04-03T16:50:02;11.00;73.70
23827;DHT22;12094;50.822;4.376;2023-04-03T16:52:30;10.90;73.90
23827;DHT22;12094;50.822;4.376;2023-04-03T16:54:58;10.80;75.40
23827;DHT22;12094;50.822;4.376;2023-04-03T16:57:28;10.80;76.30
23827;DHT22;12094;50.822;4.376;2023-04-03T16:59:56;10.90;75.80
23827;DHT22;12094;50.822;4.376;2023-04-03T17:02:23;10.90;76.10
23827;DHT22;12094;50.822;4.376;2023-04-03T17:04:54;10.80;75.40
23827;DHT22;12094;50.822;4.376;2023-04-03T17:07:22;10.80;75.40
23827;DHT22;12094;50.822;4.376;2023-04-03T17:09:53;10.80;75.40
23827;DHT22;12094;50.822;4.376;2023-04-03T17:12:22;10.80;75.80
23827;DHT22;12094;50.822;4.376;2023-04-03T17:14:50;10.70;75.90
23827;DHT22;12094;50.822;4.376;2023-04-03T17:17:24;10.70;76.50
23827;DHT22;12094;50.822;4.376;2023-04-03T17:23:38;10.60;77.60
23827;DHT22;12094;50.822;4.376;2023-04-03T17:26:06;10.60;77.10
23827;DHT22;12094;50.822;4.376;2023-04-03T17:28:33;10.60;77.30
23827;DHT22;12094;50.822;4.376;2023-04-03T17:31:01;10.60;77.50
23827;DHT22;12094;50.822;4.376;2023-04-03T17:33:28;10.60;76.70
23827;DHT22;12094;50.822;4.376;2023-04-03T17:36:00;10.60;76.70
23827;DHT22;12094;50.822;4.376;2023-04-03T17:38:33;10.40;77.40
23827;DHT22;12094;50.822;4.376;2023-04-03T17:41:04;10.40;78.20
23827;DHT22;12094;50.822;4.376;2023-04-03T17:43:32;10.50;77.30
23827;DHT22;12094;50.822;4.376;2023-04-03T17:46:00;10.40;77.50
23827;DHT22;12094;50.822;4.376;2023-04-03T17:48:31;10.40;77.80
23827;DHT22;12094;50.822;4.376;2023-04-03T17:50:58;10.30;78.10
23827;DHT22;12094;50.822;4.376;2023-04-03T17:53:25;10.30;78.10
23827;DHT22;12094;50.822;4.376;2023-04-03T17:55:53;10.20;78.40
23827;DHT22;12094;50.822;4.376;2023-04-03T17:58:20;10.20;78.80
23827;DHT22;12094;50.822;4.376;2023-04-03T18:00:47;10.10;78.80
23827;DHT22;12094;50.822;4.376;2023-04-03T18:03:13;10.00;79.40
23827;DHT22;12094;50.822;4.376;2023-04-03T18:05:40;10.00;80.00
23827;DHT22;12094;50.822;4.376;2023-04-03T18:08:07;10.00;80.30
23827;DHT22;12094;50.822;4.376;2023-04-03T18:10:35;10.00;80.60